createdAt,value
2022-12-31T00:01:36.436Z,11.40
2022-12-31T00:04:03.180Z,11.59
2022-12-31T00:06:33.649Z,11.50
2022-12-31T00:09:04.066Z,11.57
2022-12-31T00:11:31.708Z,11.51
2022-12-31T00:14:01.909Z,11.41
2022-12-31T00:16:36.577Z,11.55
2022-12-31T00:19:05.157Z,11.50
2022-12-31T00:21:33.365Z,11.45
2022-12-31T00:24:00.853Z,11.54
2022-12-31T00:26:30.735Z,11.54
2022-12-31T00:28:58.830Z,11.61
2022-12-31T00:31:43.551Z,11.53
2022-12-31T00:34:10.221Z,11.40
2022-12-31T00:36:39.273Z,11.33
2022-12-31T00:39:08.508Z,11.45
2022-12-31T00:41:35.971Z,11.55
2022-12-31T00:44:02.817Z,11.42
2022-12-31T00:46:29.662Z,11.62
2022-12-31T00:48:56.486Z,11.60
2022-12-31T00:51:27.475Z,11.62
2022-12-31T00:53:55.365Z,11.66
2022-12-31T00:56:27.130Z,11.69
2022-12-31T00:58:54.812Z,11.67
2022-12-31T01:01:24.606Z,11.78
2022-12-31T01:03:54.659Z,11.61
2022-12-31T01:06:22.097Z,11.79
2022-12-31T01:08:50.197Z,11.69
2022-12-31T01:11:20.557Z,11.81
2022-12-31T01:13:55.805Z,11.69
2022-12-31T01:16:25.863Z,11.87
2022-12-31T01:18:53.338Z,11.79
2022-12-31T01:21:21.135Z,11.73
2022-12-31T01:23:48.113Z,11.64
2022-12-31T01:26:16.801Z,11.66
2022-12-31T01:28:43.774Z,11.80
2022-12-31T01:31:14.605Z,11.82
2022-12-31T01:33:42.206Z,11.74
2022-12-31T01:36:23.570Z,11.79
2022-12-31T01:38:52.554Z,11.72
2022-12-31T01:41:22.086Z,11.81
2022-12-31T01:43:50.240Z,11.82
2022-12-31T01:46:36.903Z,11.81
2022-12-31T01:49:13.549Z,11.72
2022-12-31T01:51:43.794Z,11.70
2022-12-31T01:54:15.648Z,11.80
2022-12-31T01:56:44.768Z,11.79
2022-12-31T01:59:15.398Z,11.80
2022-12-31T02:01:42.334Z,11.69
2022-12-31T02:04:12.281Z,11.70
2022-12-31T02:06:44.550Z,11.66
2022-12-31T02:09:12.309Z,11.68
2022-12-31T02:11:38.963Z,11.74
2022-12-31T02:14:15.139Z,11.66
2022-12-31T02:16:55.708Z,11.56
2022-12-31T02:19:40.754Z,11.76
2022-12-31T02:22:43.447Z,11.70
2022-12-31T02:25:12.877Z,11.65
2022-12-31T02:27:42.228Z,11.69
2022-12-31T02:30:17.056Z,11.64
2022-12-31T02:33:03.917Z,11.69
2022-12-31T02:35:43.493Z,11.70
2022-12-31T02:38:17.331Z,11.72
2022-12-31T02:40:44.901Z,11.72
2022-12-31T02:43:11.665Z,11.91
2022-12-31T02:45:41.811Z,11.85
2022-12-31T02:48:23.729Z,11.76
2022-12-31T02:51:12.936Z,11.54
2022-12-31T02:54:02.367Z,11.32
2022-12-31T02:56:57.667Z,11.15
2022-12-31T02:59:49.306Z,11.21
2022-12-31T03:02:19.787Z,11.04
2022-12-31T03:04:56.935Z,11.08
2022-12-31T03:07:26.945Z,11.07
2022-12-31T03:09:54.360Z,10.95
2022-12-31T03:12:42.697Z,11.01
2022-12-31T03:15:19.971Z,10.87
2022-12-31T03:18:09.507Z,10.98
2022-12-31T03:21:02.913Z,10.97
2022-12-31T03:23:42.209Z,10.93
2022-12-31T03:26:12.123Z,10.93
2022-12-31T03:28:41.285Z,10.90
2022-12-31T03:31:08.809Z,10.82
2022-12-31T03:33:39.628Z,10.76
2022-12-31T03:36:11.492Z,10.68
2022-12-31T03:38:38.530Z,10.55
2022-12-31T03:41:05.612Z,10.60
2022-12-31T03:43:32.669Z,10.51
2022-12-31T03:46:01.654Z,10.45
2022-12-31T03:48:28.866Z,10.48
2022-12-31T03:50:55.740Z,10.27
2022-12-31T03:53:22.386Z,10.23
2022-12-31T03:55:52.925Z,10.46
2022-12-31T03:58:19.616Z,10.41
2022-12-31T04:00:46.262Z,10.41
2022-12-31T04:03:12.952Z,10.48
2022-12-31T04:05:40.863Z,10.42
2022-12-31T04:08:07.855Z,10.29
2022-12-31T04:10:34.865Z,10.50
2022-12-31T04:13:05.876Z,10.27
2022-12-31T04:15:32.695Z,10.18
2022-12-31T04:17:59.698Z,10.23
2022-12-31T04:20:26.554Z,10.44
2022-12-31T04:22:53.206Z,10.45
2022-12-31T04:25:20.036Z,10.28
2022-12-31T04:27:46.697Z,10.32
2022-12-31T04:30:14.267Z,10.42
2022-12-31T04:32:41.850Z,10.42
2022-12-31T04:35:09.701Z,10.45
2022-12-31T04:37:36.456Z,10.29
2022-12-31T04:40:06.515Z,10.46
2022-12-31T04:42:34.554Z,10.51
2022-12-31T04:45:01.217Z,10.48
2022-12-31T04:47:28.115Z,10.49
2022-12-31T04:49:54.789Z,10.49
2022-12-31T04:52:21.753Z,10.49
2022-12-31T04:54:48.473Z,10.48
2022-12-31T04:57:15.153Z,10.49
2022-12-31T04:59:41.947Z,10.58
2022-12-31T05:02:08.864Z,10.61
2022-12-31T05:04:35.686Z,10.53
2022-12-31T05:07:02.590Z,10.63
2022-12-31T05:09:29.813Z,10.51
2022-12-31T05:11:56.597Z,10.58
2022-12-31T05:14:23.471Z,10.54
2022-12-31T05:16:50.658Z,10.37
2022-12-31T05:19:17.615Z,10.47
2022-12-31T05:21:44.623Z,10.50
2022-12-31T05:24:11.250Z,10.53
2022-12-31T05:26:38.140Z,10.48
2022-12-31T05:29:04.858Z,10.51
2022-12-31T05:31:31.477Z,10.63
2022-12-31T05:34:00.056Z,10.37
2022-12-31T05:36:42.802Z,10.43
2022-12-31T05:39:17.037Z,10.60
2022-12-31T05:41:54.049Z,10.30
2022-12-31T05:44:29.422Z,10.57
2022-12-31T05:46:58.948Z,10.18
2022-12-31T05:49:25.624Z,10.38
2022-12-31T05:51:52.911Z,10.51
2022-12-31T05:54:26.044Z,10.32
2022-12-31T05:56:52.732Z,10.48
2022-12-31T05:59:19.426Z,10.58
2022-12-31T06:01:46.200Z,10.59
2022-12-31T06:04:12.895Z,10.49
2022-12-31T06:06:39.525Z,10.62
2022-12-31T06:09:06.274Z,10.59
2022-12-31T06:11:32.901Z,10.51
2022-12-31T06:13:59.657Z,10.46
2022-12-31T06:16:26.942Z,10.57
2022-12-31T06:18:53.831Z,10.57
2022-12-31T06:21:21.839Z,10.56
2022-12-31T06:23:48.850Z,10.58
2022-12-31T06:26:16.093Z,10.63
2022-12-31T06:28:42.881Z,10.60
2022-12-31T06:31:12.377Z,10.65
2022-12-31T06:33:39.501Z,10.51
2022-12-31T06:36:08.276Z,10.57
2022-12-31T06:38:39.182Z,10.61
2022-12-31T06:41:06.919Z,10.60
2022-12-31T06:43:35.462Z,10.55
2022-12-31T06:46:03.139Z,10.67
2022-12-31T06:48:30.286Z,10.61
2022-12-31T06:50:56.976Z,10.62
2022-12-31T06:53:23.676Z,10.63
2022-12-31T06:55:50.769Z,10.46
2022-12-31T06:58:17.729Z,10.48
2022-12-31T07:01:05.338Z,10.55
2022-12-31T07:03:41.072Z,10.49
2022-12-31T07:06:07.731Z,10.54
2022-12-31T07:08:40.245Z,10.57
2022-12-31T07:11:10.888Z,10.58
2022-12-31T07:13:55.611Z,10.61
2022-12-31T07:16:53.219Z,10.60
2022-12-31T07:19:41.529Z,10.63
2022-12-31T07:22:15.005Z,10.65
2022-12-31T07:24:45.611Z,10.65
2022-12-31T07:27:39.341Z,10.86
2022-12-31T07:30:19.796Z,10.91
2022-12-31T07:33:17.250Z,11.09
2022-12-31T07:36:01.683Z,11.17
2022-12-31T07:38:48.695Z,11.23
2022-12-31T07:41:18.242Z,11.33
2022-12-31T07:44:04.179Z,11.41
2022-12-31T07:46:31.236Z,11.51
2022-12-31T07:48:59.003Z,11.62
2022-12-31T07:51:26.494Z,11.69
2022-12-31T07:53:53.143Z,11.65
2022-12-31T07:56:19.867Z,11.71
2022-12-31T07:59:13.858Z,11.95
2022-12-31T08:02:33.216Z,12.00
2022-12-31T08:04:59.916Z,12.08
2022-12-31T08:07:38.651Z,12.12
2022-12-31T08:10:17.361Z,12.19
2022-12-31T08:12:47.311Z,12.21
2022-12-31T08:15:16.989Z,12.25
2022-12-31T08:17:44.365Z,12.25
2022-12-31T08:20:18.387Z,12.23
2022-12-31T08:23:03.048Z,12.26
2022-12-31T08:25:47.707Z,12.36
2022-12-31T08:28:38.537Z,12.48
2022-12-31T08:31:48.073Z,12.61
2022-12-31T08:34:26.218Z,12.56
2022-12-31T08:37:08.326Z,12.63
2022-12-31T08:39:41.764Z,12.93
2022-12-31T08:42:25.204Z,12.94
2022-12-31T08:45:08.733Z,12.97
2022-12-31T08:48:00.051Z,13.02
2022-12-31T08:50:27.803Z,13.02
2022-12-31T08:52:54.933Z,13.07
2022-12-31T08:55:24.656Z,13.12
2022-12-31T08:58:06.300Z,13.34
2022-12-31T09:00:36.086Z,13.49
2022-12-31T09:03:41.447Z,13.73
2022-12-31T09:06:22.864Z,13.72
2022-12-31T09:09:07.832Z,13.52
2022-12-31T09:11:55.677Z,13.70
2022-12-31T09:14:50.480Z,13.71
2022-12-31T09:17:17.163Z,13.74
2022-12-31T09:19:43.819Z,13.52
2022-12-31T09:22:11.528Z,13.60
2022-12-31T09:24:39.594Z,13.43
2022-12-31T09:27:15.536Z,13.49
2022-12-31T09:30:14.838Z,13.52
2022-12-31T09:33:09.357Z,13.51
2022-12-31T09:35:55.239Z,13.34
2022-12-31T09:38:35.457Z,13.45
2022-12-31T09:41:43.221Z,13.46
2022-12-31T09:44:50.787Z,13.42
2022-12-31T09:47:48.253Z,13.26
2022-12-31T09:50:21.331Z,13.22
2022-12-31T09:53:06.402Z,13.11
2022-12-31T09:55:48.058Z,13.03
2022-12-31T09:59:23.130Z,12.86
2022-12-31T10:02:01.718Z,12.78
2022-12-31T10:05:01.707Z,12.71
2022-12-31T10:07:30.878Z,12.68
2022-12-31T10:10:09.929Z,12.70
2022-12-31T10:13:07.119Z,12.71
2022-12-31T10:15:48.639Z,12.71
2022-12-31T10:18:43.003Z,12.77
2022-12-31T10:21:28.303Z,12.80
2022-12-31T10:24:20.003Z,12.90
2022-12-31T10:26:58.603Z,12.93
2022-12-31T10:29:36.079Z,12.86
2022-12-31T10:32:05.542Z,13.01
2022-12-31T10:35:00.599Z,12.93
2022-12-31T10:37:33.061Z,12.99
2022-12-31T10:40:19.549Z,13.05
2022-12-31T10:47:23.587Z,13.19
2022-12-31T10:50:30.480Z,13.41
2022-12-31T10:57:16.220Z,13.05
2022-12-31T10:59:49.217Z,13.58
2022-12-31T11:02:34.361Z,13.55
2022-12-31T11:05:38.232Z,13.58
2022-12-31T11:08:29.279Z,13.63
2022-12-31T11:10:55.929Z,13.48
2022-12-31T11:13:53.748Z,13.71
2022-12-31T11:16:50.668Z,14.01
2022-12-31T11:19:51.166Z,14.12
2022-12-31T11:22:24.787Z,14.06
2022-12-31T11:25:13.371Z,13.95
2022-12-31T11:27:46.070Z,13.81
2022-12-31T11:30:24.699Z,13.74
2022-12-31T11:33:25.504Z,13.68
2022-12-31T11:36:30.265Z,13.66
2022-12-31T11:39:17.593Z,13.48
2022-12-31T11:46:04.621Z,13.13
2022-12-31T11:49:07.168Z,13.73
2022-12-31T11:51:56.728Z,12.84
2022-12-31T11:57:51.862Z,13.09
2022-12-31T12:00:43.995Z,13.35
2022-12-31T12:03:46.566Z,13.38
2022-12-31T12:14:08.914Z,14.20
2022-12-31T12:20:23.721Z,14.29
2022-12-31T12:22:57.589Z,13.54
2022-12-31T12:25:34.694Z,13.79
2022-12-31T12:28:50.509Z,14.12
2022-12-31T12:31:36.092Z,13.28
2022-12-31T12:34:10.355Z,13.51
2022-12-31T12:36:49.827Z,14.13
2022-12-31T12:39:25.318Z,13.35
2022-12-31T12:42:09.572Z,14.19
2022-12-31T12:49:26.405Z,14.21
2022-12-31T12:52:40.029Z,13.84
2022-12-31T12:55:34.876Z,14.26
2022-12-31T12:58:18.836Z,14.36
2022-12-31T13:01:33.041Z,14.42
2022-12-31T13:04:34.057Z,13.77
2022-12-31T13:14:14.122Z,14.54
2022-12-31T13:16:45.621Z,13.61
2022-12-31T13:19:32.821Z,13.87
2022-12-31T13:22:25.469Z,13.76
2022-12-31T13:28:02.985Z,13.89
2022-12-31T13:30:40.579Z,13.96
2022-12-31T13:33:18.507Z,14.04
2022-12-31T13:35:47.778Z,14.03
2022-12-31T13:38:34.840Z,13.84
2022-12-31T13:41:08.694Z,13.82
2022-12-31T13:43:50.798Z,13.61
2022-12-31T13:46:26.875Z,13.81
2022-12-31T13:48:58.333Z,13.78
2022-12-31T13:51:54.896Z,13.78
2022-12-31T13:54:27.533Z,13.76
2022-12-31T13:56:57.642Z,13.61
2022-12-31T13:59:31.675Z,13.69
2022-12-31T14:02:07.737Z,13.78
2022-12-31T14:04:42.679Z,13.61
2022-12-31T14:07:32.222Z,13.66
2022-12-31T14:10:02.283Z,13.67
2022-12-31T14:12:52.959Z,13.69
2022-12-31T14:15:29.636Z,13.78
2022-12-31T14:18:21.639Z,13.80
2022-12-31T14:21:04.042Z,13.74
2022-12-31T14:26:33.168Z,13.69
2022-12-31T14:29:11.955Z,13.78
2022-12-31T14:31:41.290Z,13.78
2022-12-31T14:34:30.125Z,13.78
2022-12-31T14:37:07.750Z,13.70
2022-12-31T14:39:54.982Z,13.74
2022-12-31T14:42:40.996Z,13.76
2022-12-31T14:45:23.135Z,13.72
2022-12-31T14:48:02.172Z,13.72
2022-12-31T14:50:30.755Z,13.61
2022-12-31T14:53:00.483Z,13.57
2022-12-31T14:55:29.240Z,13.42
2022-12-31T15:01:17.783Z,13.38
2022-12-31T15:03:46.393Z,13.21
2022-12-31T15:06:40.137Z,13.65
2022-12-31T15:09:23.428Z,13.44
2022-12-31T15:12:26.058Z,13.55
2022-12-31T15:15:23.290Z,13.55
2022-12-31T15:17:52.139Z,13.50
2022-12-31T15:20:56.735Z,13.54
2022-12-31T15:23:27.510Z,13.51
2022-12-31T15:26:35.380Z,13.45
2022-12-31T15:29:08.199Z,13.47
2022-12-31T15:31:36.768Z,13.43
2022-12-31T15:34:06.336Z,13.48
2022-12-31T15:36:39.219Z,13.68
2022-12-31T15:39:11.793Z,13.73
2022-12-31T15:44:51.973Z,13.55
2022-12-31T15:47:29.620Z,13.50
2022-12-31T15:50:00.743Z,13.61
2022-12-31T15:52:45.136Z,13.67
2022-12-31T15:55:41.764Z,13.68
2022-12-31T15:58:15.845Z,13.71
2022-12-31T16:01:02.168Z,13.77
2022-12-31T16:03:31.931Z,13.74
2022-12-31T16:06:12.150Z,13.91
2022-12-31T16:08:40.956Z,13.90
2022-12-31T16:11:09.210Z,13.85
2022-12-31T16:13:41.389Z,13.90
2022-12-31T16:16:18.961Z,13.89
2022-12-31T16:18:46.435Z,13.75
2022-12-31T16:21:32.961Z,13.75
2022-12-31T16:24:02.851Z,13.74
2022-12-31T16:27:09.269Z,13.92
2022-12-31T16:29:37.711Z,13.85
2022-12-31T16:32:04.680Z,13.93
2022-12-31T16:34:37.011Z,13.90
2022-12-31T16:37:07.445Z,13.98
2022-12-31T16:39:36.703Z,13.81
2022-12-31T16:42:09.551Z,13.89
2022-12-31T16:44:36.249Z,13.91
2022-12-31T16:47:04.222Z,13.82
2022-12-31T16:49:41.519Z,13.77
2022-12-31T16:52:29.331Z,13.96
2022-12-31T16:54:57.376Z,14.08
2022-12-31T16:57:27.429Z,14.00
2022-12-31T17:00:29.977Z,14.03
2022-12-31T17:03:20.215Z,13.83
2022-12-31T17:06:12.586Z,14.12
2022-12-31T17:09:02.754Z,14.13
2022-12-31T17:11:56.220Z,14.02
2022-12-31T17:14:37.228Z,13.73
2022-12-31T17:17:09.144Z,13.76
2022-12-31T17:19:47.387Z,14.10
2022-12-31T17:22:29.810Z,14.13
2022-12-31T17:25:09.243Z,14.06
2022-12-31T17:27:39.801Z,14.05
2022-12-31T17:30:37.081Z,14.15
2022-12-31T17:33:12.809Z,14.29
2022-12-31T17:35:43.687Z,14.24
2022-12-31T17:38:36.748Z,14.17
2022-12-31T17:41:06.182Z,14.23
2022-12-31T17:43:38.188Z,14.21
2022-12-31T17:46:16.492Z,14.32
2022-12-31T17:48:46.210Z,14.37
2022-12-31T17:51:12.896Z,14.37
2022-12-31T17:53:39.660Z,14.33
2022-12-31T17:56:08.244Z,14.32
2022-12-31T17:58:43.551Z,14.39
2022-12-31T18:01:13.727Z,14.37
2022-12-31T18:03:40.854Z,14.22
2022-12-31T18:06:16.072Z,14.36
2022-12-31T18:08:45.881Z,14.35
2022-12-31T18:11:17.615Z,14.28
2022-12-31T18:13:44.684Z,14.46
2022-12-31T18:16:11.778Z,14.45
2022-12-31T18:18:41.567Z,14.68
2022-12-31T18:21:16.403Z,14.60
2022-12-31T18:23:48.614Z,14.52
2022-12-31T18:26:23.682Z,14.52
2022-12-31T18:28:50.533Z,14.60
2022-12-31T18:31:28.797Z,14.66
2022-12-31T18:33:58.082Z,14.64
2022-12-31T18:36:25.932Z,14.68
2022-12-31T18:38:53.416Z,14.79
2022-12-31T18:41:23.403Z,14.80
2022-12-31T18:43:51.015Z,14.97
2022-12-31T18:46:21.922Z,15.13
2022-12-31T18:48:49.106Z,15.15
2022-12-31T18:51:23.996Z,15.15
2022-12-31T18:53:53.255Z,15.10
2022-12-31T18:56:21.477Z,15.14
2022-12-31T18:58:48.726Z,15.05
2022-12-31T19:01:28.299Z,15.06
2022-12-31T19:04:00.670Z,15.09
2022-12-31T19:06:28.057Z,15.04
2022-12-31T19:08:55.333Z,14.97
2022-12-31T19:11:22.798Z,14.93
2022-12-31T19:13:50.029Z,14.99
2022-12-31T19:16:17.989Z,14.99
2022-12-31T19:18:45.396Z,14.89
2022-12-31T19:21:20.851Z,14.97
2022-12-31T19:23:47.601Z,14.96
2022-12-31T19:26:19.382Z,15.01
2022-12-31T19:28:46.689Z,14.99
2022-12-31T19:31:14.367Z,15.05
2022-12-31T19:33:52.800Z,14.98
2022-12-31T19:39:08.784Z,14.67
2022-12-31T19:41:40.377Z,14.52
2022-12-31T19:44:19.310Z,14.92
2022-12-31T19:46:47.821Z,15.05
2022-12-31T19:49:31.613Z,14.62
2022-12-31T19:51:58.590Z,14.57
2022-12-31T19:54:25.315Z,14.51
2022-12-31T19:57:08.328Z,14.54
2022-12-31T19:59:50.711Z,14.58
2022-12-31T20:02:17.622Z,14.65
2022-12-31T20:04:47.758Z,14.24
2022-12-31T20:07:45.790Z,14.81
2022-12-31T20:10:30.500Z,14.44
2022-12-31T20:15:39.542Z,14.69
2022-12-31T20:21:25.952Z,14.45
2022-12-31T20:24:28.472Z,14.48
2022-12-31T20:27:20.444Z,14.63
2022-12-31T20:29:47.263Z,14.77
2022-12-31T20:32:14.172Z,14.77
2022-12-31T20:34:40.794Z,14.88
2022-12-31T20:37:07.403Z,14.84
2022-12-31T20:39:34.148Z,14.98
2022-12-31T20:42:00.816Z,14.99
2022-12-31T20:44:27.455Z,15.01
2022-12-31T20:46:54.467Z,14.84
2022-12-31T20:49:37.541Z,14.96
2022-12-31T20:52:07.847Z,14.98
2022-12-31T20:54:47.619Z,15.06
2022-12-31T21:06:37.030Z,14.60
2022-12-31T21:09:07.269Z,14.86
2022-12-31T21:12:01.704Z,14.94
2022-12-31T21:14:32.299Z,14.70
2022-12-31T21:17:04.887Z,14.59
2022-12-31T21:19:46.236Z,14.29
2022-12-31T21:22:19.469Z,14.30
2022-12-31T21:24:47.671Z,14.58
2022-12-31T21:27:15.830Z,14.85
2022-12-31T21:30:17.723Z,14.69
2022-12-31T21:32:42.613Z,14.85
2022-12-31T21:38:27.719Z,14.73
2022-12-31T21:41:36.406Z,14.78
2022-12-31T21:44:40.844Z,14.54
2022-12-31T21:48:07.327Z,14.21
2022-12-31T21:57:01.350Z,14.44
2022-12-31T22:00:39.856Z,15.02
2022-12-31T22:03:23.836Z,14.44
2022-12-31T22:06:41.397Z,14.76
2022-12-31T22:17:58.822Z,14.42
2022-12-31T22:20:27.894Z,14.68
2022-12-31T22:23:16.185Z,14.23
2022-12-31T22:25:51.926Z,14.42
2022-12-31T22:31:05.701Z,14.74
2022-12-31T22:33:32.518Z,14.70
2022-12-31T22:36:08.309Z,14.72
2022-12-31T22:38:34.978Z,14.86
2022-12-31T22:41:13.593Z,14.87
2022-12-31T22:43:43.441Z,15.01
2022-12-31T22:46:13.481Z,15.08
2022-12-31T22:48:40.730Z,15.11
2022-12-31T22:51:09.114Z,15.18
2022-12-31T22:53:42.939Z,14.98
2022-12-31T22:56:14.022Z,14.86
2022-12-31T22:59:17.667Z,15.26
2022-12-31T23:01:44.986Z,14.75
2022-12-31T23:05:14.790Z,15.12
2022-12-31T23:08:09.451Z,14.96
2022-12-31T23:11:13.866Z,15.45
2022-12-31T23:14:05.549Z,15.06
2022-12-31T23:17:29.721Z,15.14
2022-12-31T23:23:52.477Z,15.54
2022-12-31T23:28:45.060Z,15.50
2022-12-31T23:30:43.917Z,15.08
2022-12-31T23:34:24.535Z,15.25
2022-12-31T23:37:13.408Z,15.36
2022-12-31T23:40:20.836Z,15.19
2022-12-31T23:43:24.691Z,15.36
2022-12-31T23:46:27.705Z,15.08
2022-12-31T23:49:25.087Z,14.90
2022-12-31T23:52:02.756Z,15.24
2022-12-31T23:54:29.646Z,15.00
2022-12-31T23:57:02.068Z,15.11
2022-12-31T23:59:45.784Z,15.02
